ADDS METAR Data INFO
IDs: Format: Raw Decoded Include TAF

Data at: 0426 UTC 24 Apr 2018

KJCT 240351Z AUTO 08005KT 10SM CLR 22/06 A3006 RMK AO2 SLP147 T02170056
KJCT 240251Z AUTO 09008KT 10SM CLR 22/04 A3004 RMK AO2 SLP142 T02220044 53018
KJCT 240151Z AUTO 08006KT 10SM CLR 25/04 A3000 RMK AO2 SLP131 T02500044
KJCT 240051Z AUTO 05006KT 10SM CLR 28/04 A2998 RMK AO2 SLP125 T02830044
KJCT 232351Z AUTO 00000KT 10SM CLR 29/04 A2998 RMK AO2 SLP123 T02940039 10306 20239 56018
KJCT 232251Z AUTO 36004KT 10SM CLR 31/03 A2999 RMK AO2 SLP125 T03060033
KJCT 232151Z AUTO 02008KT 10SM CLR 31/04 A3000 RMK AO2 SLP130 T03060039
KJCT 232051Z AUTO VRB04KT 10SM CLR 29/04 A3003 RMK AO2 SLP141 T02940039 58032
KJCT 231951Z AUTO VRB03KT 10SM CLR 28/05 A3007 RMK AO2 SLP154 T02830050
KJCT 231851Z AUTO 00000KT 10SM CLR 27/06 A3010 RMK AO2 SLP164 T02720061
KJCT 231751Z AUTO 20004KT 10SM CLR 24/06 A3013 RMK AO2 SLP175 T02390061 10250 20067 58011
KJCT 231651Z AUTO VRB03KT 10SM CLR 23/06 A3016 RMK AO2 SLP183 T02280056
KJCT 231551Z AUTO 10003KT 10SM CLR 21/05 A3017 RMK AO2 SLP186 T02110050
KJCT 231451Z AUTO 00000KT 10SM CLR 17/06 A3017 RMK AO2 SLP188 T01670056 50011
KJCT 231351Z AUTO 00000KT 10SM CLR 12/05 A3017 RMK AO2 SLP192 T01220050
KJCT 231251Z AUTO 00000KT 10SM CLR 09/04 A3017 RMK AO2 SLP191 T00890039
KJCT 231151Z AUTO 00000KT 10SM CLR 07/03 A3014 RMK AO2 SLP180 T00670033 10150 20067 53013
KJCT 231051Z AUTO 30003KT 10SM CLR 08/04 A3011 RMK AO2 SLP173 T00780039
KJCT 230951Z AUTO 00000KT 10SM CLR 08/03 A3010 RMK AO2 SLP166 T00780033
KJCT 230851Z AUTO 28003KT 10SM CLR 09/04 A3009 RMK AO2 SLP165 T00890044 55005
KJCT 230751Z AUTO 00000KT 10SM CLR 11/04 A3009 RMK AO2 SLP163 T01060044
KJCT 230651Z AUTO 00000KT 10SM CLR 11/04 A3010 RMK AO2 SLP167 T01060044
KJCT 230551Z AUTO 00000KT 10SM CLR 15/05 A3011 RMK AO2 SLP169 T01500050 10250 20139 402670083 51015
KJCT 230451Z AUTO 00000KT 10SM CLR 16/05 A3009 RMK AO2 SLP165 T01610050
KJCT 230351Z AUTO 10006KT 10SM CLR 18/04 A3009 RMK AO2 SLP164 T01780044
KJCT 230251Z AUTO 06005KT 10SM CLR 20/05 A3006 RMK AO2 SLP155 T02000050 51011
KJCT 230151Z AUTO 04009KT 10SM CLR 22/04 A3006 RMK AO2 SLP154 T02170044
KJCT 230051Z AUTO 01007KT 10SM CLR 23/04 A3004 RMK AO2 SLP146 T02330039
KJCT 222351Z AUTO 02007KT 10SM CLR 26/03 A3003 RMK AO2 SLP141 T02560033 10267 20206 56009
KJCT 222251Z AUTO 36009KT 10SM CLR 26/03 A3003 RMK AO2 SLP142 T02560028
KJCT 222151Z AUTO 36007KT 310V030 10SM CLR 26/03 A3003 RMK AO2 SLP142 T02560033
KJCT 222051Z AUTO 33008KT 10SM CLR 26/04 A3006 RMK AO2 SLP151 T02560039 56028
KJCT 221951Z AUTO 10SM CLR 24/05 A3009 RMK AO2 SLP161 T02390050
KJCT 221851Z AUTO VRB05KT 10SM CLR 22/05 A3011 RMK AO2 SLP169 T02220050
KJCT 221751Z AUTO 36010G15KT 10SM CLR 21/06 A3015 RMK AO2 SLP182 T02060061 10206 20094 58014
KJCT 221651Z AUTO 35010KT 10SM CLR 18/07 A3017 RMK AO2 SLP191 T01780067